Fishers Landing, NY

12:00 PM EST on November 12, 2019 (GMT -0500)
Omar | | Change Station

Elev 350 ft 44.28 °N, 75.98 °W | Updated 18 seconds ago

Overcast
Overcast
21.7 °F
Feels Like 22 °F
N
0
Wind Variable Wind from WNW
Gusts 0.0 mph

Today
High -- | Low -- °F
--% Chance of Precip.
Yesterday
High -- | Low -- °F
Precip. -- in
Pressure 30.07 in
Visibility 10.0 miles
Clouds Mostly Cloudy 2500 ft
Overcast 3200 ft
Windchill 22 °F
Dew Point 20 °F
Humidity 91%
Rainfall 0.00 in
Snow Depth Not available.
6:55 AM 4:40 PM
Full, 100% visible
METAR KART 121656Z AUTO 31011KT 10SM BKN025 OVC032 M06/M12 A3005 RMK AO2 SLP183 T10561117
Pressure 30.07 in
Visibility 10.0 miles
Clouds Mostly Cloudy 2500 ft
Overcast 3200 ft
Windchill 22 °F
Dew Point 20 °F
Humidity 91%
Rainfall 0.00 in
Snow Depth Not available.
6:55 AM 4:40 PM
Full, 100% visible
METAR KART 121656Z AUTO 31011KT 10SM BKN025 OVC032 M06/M12 A3005 RMK AO2 SLP183 T10561117

Get Severe Weather Alerts

Thanks for signing up!

Be on the lookout for a verification email in your inbox.

You'll start receiving the daily forecast at 6 AM.

×

10-Day Weather Forecast

Almanac

Astronomy

Nov. 12, 2019 Rise Set
Actual Time
Civil Twilight
Nautical Twilight
Astronomical Twilight
Moon
Length of Visible Light
Length of Day
Tomorrow will be .
, % of the Moon is Illuminated

Today's Extremes

State Highs State Lows

Community

WunderPhotos

Category 6

Welcome to Category 6. This is the collective home for Weather Underground's featured writeups by Dr. Jeff Masters (right), Bob Henson (left), Chris Burt, and other regular contributors.

Nearby

Air Quality

  Air Quality AQ Index Pollutant
Not available.

Snow Depth

Station Depth Elevation

Earthquake Activity

City Distance Mag. Time & Date
Minimum magnitude displayed is 2.5.

Coastal Water Temperatures

Place Temperature

Stations

Nearby Weather Stations

Station Location Temp. Windchill Dew Point Humidity Wind Precip. Elev Updated Type
                   

Watches & Warnings

There are currently no watches in effect.